sensor_id;sensor_type;location;lat;lon;timestamp;P1;durP1;ratioP1;P2;durP2;ratioP2
12896;SDS011;6516;35.028;32.372;2023-08-07T00:00:28;12.10;;;6.82;;
12896;SDS011;6516;35.028;32.372;2023-08-07T00:02:56;12.70;;;7.15;;
12896;SDS011;6516;35.028;32.372;2023-08-07T00:05:24;10.45;;;6.43;;
12896;SDS011;6516;35.028;32.372;2023-08-07T00:07:52;9.37;;;6.40;;
12896;SDS011;6516;35.028;32.372;2023-08-07T00:10:20;11.57;;;6.97;;
12896;SDS011;6516;35.028;32.372;2023-08-07T00:12:49;11.35;;;6.93;;
12896;SDS011;6516;35.028;32.372;2023-08-07T00:15:17;11.68;;;7.30;;
12896;SDS011;6516;35.028;32.372;2023-08-07T00:17:45;13.02;;;7.32;;
12896;SDS011;6516;35.028;32.372;2023-08-07T00:20:13;9.63;;;6.60;;
12896;SDS011;6516;35.028;32.372;2023-08-07T00:22:41;10.80;;;6.65;;
12896;SDS011;6516;35.028;32.372;2023-08-07T00:25:08;10.85;;;6.85;;
12896;SDS011;6516;35.028;32.372;2023-08-07T00:27:36;11.57;;;6.70;;
12896;SDS011;6516;35.028;32.372;2023-08-07T00:30:06;11.05;;;6.63;;
12896;SDS011;6516;35.028;32.372;2023-08-07T00:32:35;10.70;;;6.93;;
12896;SDS011;6516;35.028;32.372;2023-08-07T00:35:03;9.75;;;6.70;;
12896;SDS011;6516;35.028;32.372;2023-08-07T00:37:34;13.10;;;7.53;;
12896;SDS011;6516;35.028;32.372;2023-08-07T00:40:02;13.13;;;7.18;;
12896;SDS011;6516;35.028;32.372;2023-08-07T00:42:31;12.23;;;7.38;;
12896;SDS011;6516;35.028;32.372;2023-08-07T00:44:59;11.47;;;7.20;;
12896;SDS011;6516;35.028;32.372;2023-08-07T00:47:29;11.82;;;7.38;;
12896;SDS011;6516;35.028;32.372;2023-08-07T00:49:57;12.15;;;7.93;;
12896;SDS011;6516;35.028;32.372;2023-08-07T00:52:25;12.98;;;7.10;;
12896;SDS011;6516;35.028;32.372;2023-08-07T00:54:53;11.73;;;6.70;;
12896;SDS011;6516;35.028;32.372;2023-08-07T00:57:21;13.27;;;7.20;;
12896;SDS011;6516;35.028;32.372;2023-08-07T00:59:49;9.60;;;6.20;;
12896;SDS011;6516;35.028;32.372;2023-08-07T01:02:17;11.40;;;7.15;;
12896;SDS011;6516;35.028;32.372;2023-08-07T01:04:47;10.23;;;6.60;;
12896;SDS011;6516;35.028;32.372;2023-08-07T01:07:16;10.80;;;6.90;;
12896;SDS011;6516;35.028;32.372;2023-08-07T01:09:44;9.43;;;6.60;;
12896;SDS011;6516;35.028;32.372;2023-08-07T01:12:13;9.85;;;6.65;;
12896;SDS011;6516;35.028;32.372;2023-08-07T01:14:49;11.25;;;7.53;;
12896;SDS011;6516;35.028;32.372;2023-08-07T01:17:21;11.27;;;7.05;;
12896;SDS011;6516;35.028;32.372;2023-08-07T01:19:51;9.95;;;7.40;;
12896;SDS011;6516;35.028;32.372;2023-08-07T01:22:21;15.17;;;7.30;;
12896;SDS011;6516;35.028;32.372;2023-08-07T01:24:51;12.18;;;7.30;;
12896;SDS011;6516;35.028;32.372;2023-08-07T01:27:25;11.35;;;7.45;;
12896;SDS011;6516;35.028;32.372;2023-08-07T01:30:05;10.65;;;6.70;;
12896;SDS011;6516;35.028;32.372;2023-08-07T01:32:43;11.98;;;6.85;;
12896;SDS011;6516;35.028;32.372;2023-08-07T01:35:20;11.53;;;7.50;;
12896;SDS011;6516;35.028;32.372;2023-08-07T01:37:53;9.45;;;6.43;;
12896;SDS011;6516;35.028;32.372;2023-08-07T01:40:23;13.05;;;7.00;;
12896;SDS011;6516;35.028;32.372;2023-08-07T01:42:51;10.18;;;6.45;;
12896;SDS011;6516;35.028;32.372;2023-08-07T01:45:23;10.15;;;6.40;;
12896;SDS011;6516;35.028;32.372;2023-08-07T01:47:51;8.07;;;6.20;;
12896;SDS011;6516;35.028;32.372;2023-08-07T01:50:19;9.27;;;6.22;;
12896;SDS011;6516;35.028;32.372;2023-08-07T01:52:48;11.13;;;6.75;;
12896;SDS011;6516;35.028;32.372;2023-08-07T01:55:17;11.32;;;6.60;;
12896;SDS011;6516;35.028;32.372;2023-08-07T01:57:46;9.10;;;6.68;;
12896;SDS011;6516;35.028;32.372;2023-08-07T02:00:14;8.50;;;6.57;;
12896;SDS011;6516;35.028;32.372;2023-08-07T02:02:42;10.98;;;6.82;;
12896;SDS011;6516;35.028;32.372;2023-08-07T02:05:10;12.05;;;6.97;;
12896;SDS011;6516;35.028;32.372;2023-08-07T02:07:38;10.10;;;6.70;;
12896;SDS011;6516;35.028;32.372;2023-08-07T02:10:06;11.80;;;7.03;;
12896;SDS011;6516;35.028;32.372;2023-08-07T02:12:36;10.37;;;6.50;;
12896;SDS011;6516;35.028;32.372;2023-08-07T02:15:04;13.57;;;7.07;;
12896;SDS011;6516;35.028;32.372;2023-08-07T02:17:34;12.57;;;7.32;;
12896;SDS011;6516;35.028;32.372;2023-08-07T02:20:04;13.43;;;7.32;;
12896;SDS011;6516;35.028;32.372;2023-08-07T02:22:33;13.10;;;7.82;;
12896;SDS011;6516;35.028;32.372;2023-08-07T02:25:01;12.00;;;7.60;;
12896;SDS011;6516;35.028;32.372;2023-08-07T02:27:29;12.35;;;7.55;;
12896;SDS011;6516;35.028;32.372;2023-08-07T02:29:58;14.18;;;8.15;;
12896;SDS011;6516;35.028;32.372;2023-08-07T02:32:28;14.82;;;7.68;;
12896;SDS011;6516;35.028;32.372;2023-08-07T02:34:55;12.95;;;8.13;;
12896;SDS011;6516;35.028;32.372;2023-08-07T02:37:25;12.47;;;7.87;;
12896;SDS011;6516;35.028;32.372;2023-08-07T02:39:52;11.15;;;7.32;;
12896;SDS011;6516;35.028;32.372;2023-08-07T02:42:20;13.30;;;8.07;;
12896;SDS011;6516;35.028;32.372;2023-08-07T02:44:48;10.25;;;7.75;;
12896;SDS011;6516;35.028;32.372;2023-08-07T02:47:21;13.38;;;7.90;;
12896;SDS011;6516;35.028;32.372;2023-08-07T02:49:49;14.63;;;8.07;;
12896;SDS011;6516;35.028;32.372;2023-08-07T02:52:17;14.13;;;8.10;;
12896;SDS011;6516;35.028;32.372;2023-08-07T02:54:45;16.45;;;8.10;;
12896;SDS011;6516;35.028;32.372;2023-08-07T02:57:13;14.68;;;8.15;;
12896;SDS011;6516;35.028;32.372;2023-08-07T02:59:40;12.60;;;7.90;;
12896;SDS011;6516;35.028;32.372;2023-08-07T03:02:08;13.40;;;7.80;;
12896;SDS011;6516;35.028;32.372;2023-08-07T03:04:37;14.52;;;7.70;;
12896;SDS011;6516;35.028;32.372;2023-08-07T03:07:05;17.10;;;8.35;;
12896;SDS011;6516;35.028;32.372;2023-08-07T03:09:33;14.30;;;7.50;;
12896;SDS011;6516;35.028;32.372;2023-08-07T03:12:00;16.73;;;8.15;;
12896;SDS011;6516;35.028;32.372;2023-08-07T03:14:29;17.30;;;8.10;;
12896;SDS011;6516;35.028;32.372;2023-08-07T03:16:58;15.55;;;7.78;;
12896;SDS011;6516;35.028;32.372;2023-08-07T03:19:26;16.20;;;8.18;;
12896;SDS011;6516;35.028;32.372;2023-08-07T03:21:55;12.40;;;7.90;;
12896;SDS011;6516;35.028;32.372;2023-08-07T03:24:23;12.00;;;7.70;;
12896;SDS011;6516;35.028;32.372;2023-08-07T03:26:50;12.60;;;7.60;;
12896;SDS011;6516;35.028;32.372;2023-08-07T03:29:18;17.50;;;8.23;;
12896;SDS011;6516;35.028;32.372;2023-08-07T03:31:47;14.27;;;7.70;;
12896;SDS011;6516;35.028;32.372;2023-08-07T03:34:16;16.73;;;7.70;;
12896;SDS011;6516;35.028;32.372;2023-08-07T03:36:44;13.18;;;8.07;;
12896;SDS011;6516;35.028;32.372;2023-08-07T03:39:13;13.37;;;8.00;;
12896;SDS011;6516;35.028;32.372;2023-08-07T03:41:41;16.77;;;8.40;;
12896;SDS011;6516;35.028;32.372;2023-08-07T03:44:09;12.27;;;7.28;;
12896;SDS011;6516;35.028;32.372;2023-08-07T03:46:36;12.73;;;8.00;;
12896;SDS011;6516;35.028;32.372;2023-08-07T03:49:05;13.90;;;7.60;;
12896;SDS011;6516;35.028;32.372;2023-08-07T03:51:33;14.50;;;8.17;;
12896;SDS011;6516;35.028;32.372;2023-08-07T03:54:00;13.13;;;7.43;;
12896;SDS011;6516;35.028;32.372;2023-08-07T03:56:30;17.88;;;7.30;;
12896;SDS011;6516;35.028;32.372;2023-08-07T03:59:01;12.00;;;6.75;;
12896;SDS011;6516;35.028;32.372;2023-08-07T04:01:29;14.13;;;7.22;;
12896;SDS011;6516;35.028;32.372;2023-08-07T04:03:57;11.83;;;6.53;;
12896;SDS011;6516;35.028;32.372;2023-08-07T04:06:25;11.70;;;7.05;;
12896;SDS011;6516;35.028;32.372;2023-08-07T04:08:54;12.43;;;6.63;;
12896;SDS011;6516;35.028;32.372;2023-08-07T04:11:21;16.52;;;6.80;;
12896;SDS011;6516;35.028;32.372;2023-08-07T04:13:51;16.35;;;6.90;;
12896;SDS011;6516;35.028;32.372;2023-08-07T04:16:18;15.03;;;6.77;;
12896;SDS011;6516;35.028;32.372;2023-08-07T04:18:47;13.80;;;6.88;;
12896;SDS011;6516;35.028;32.372;2023-08-07T04:21:15;13.55;;;6.65;;
12896;SDS011;6516;35.028;32.372;2023-08-07T04:23:42;15.02;;;6.82;;
12896;SDS011;6516;35.028;32.372;2023-08-07T04:26:10;14.02;;;6.50;;
12896;SDS011;6516;35.028;32.372;2023-08-07T04:28:39;12.73;;;5.50;;
12896;SDS011;6516;35.028;32.372;2023-08-07T04:31:09;11.73;;;4.97;;
12896;SDS011;6516;35.028;32.372;2023-08-07T04:33:36;14.90;;;5.75;;
12896;SDS011;6516;35.028;32.372;2023-08-07T04:36:04;13.23;;;4.80;;
12896;SDS011;6516;35.028;32.372;2023-08-07T04:38:32;13.75;;;5.40;;
12896;SDS011;6516;35.028;32.372;2023-08-07T04:41:00;11.53;;;5.00;;
12896;SDS011;6516;35.028;32.372;2023-08-07T04:43:28;13.18;;;5.18;;
12896;SDS011;6516;35.028;32.372;2023-08-07T04:45:57;17.30;;;5.38;;
12896;SDS011;6516;35.028;32.372;2023-08-07T04:48:26;14.50;;;5.20;;
12896;SDS011;6516;35.028;32.372;2023-08-07T04:50:54;12.68;;;5.30;;
12896;SDS011;6516;35.028;32.372;2023-08-07T04:53:23;44.13;;;7.87;;
12896;SDS011;6516;35.028;32.372;2023-08-07T04:55:50;44.40;;;8.05;;
12896;SDS011;6516;35.028;32.372;2023-08-07T04:58:18;10.30;;;4.47;;
12896;SDS011;6516;35.028;32.372;2023-08-07T05:00:46;8.85;;;3.90;;
12896;SDS011;6516;35.028;32.372;2023-08-07T05:03:14;12.50;;;3.90;;
12896;SDS011;6516;35.028;32.372;2023-08-07T05:05:45;9.13;;;3.80;;
12896;SDS011;6516;35.028;32.372;2023-08-07T05:08:12;22.42;;;5.35;;
12896;SDS011;6516;35.028;32.372;2023-08-07T05:10:40;31.05;;;6.13;;
12896;SDS011;6516;35.028;32.372;2023-08-07T05:13:08;64.47;;;9.05;;
12896;SDS011;6516;35.028;32.372;2023-08-07T05:15:36;19.65;;;4.90;;
12896;SDS011;6516;35.028;32.372;2023-08-07T05:18:05;12.03;;;3.83;;
12896;SDS011;6516;35.028;32.372;2023-08-07T05:20:33;18.77;;;4.70;;
12896;SDS011;6516;35.028;32.372;2023-08-07T05:23:03;8.55;;;3.67;;
12896;SDS011;6516;35.028;32.372;2023-08-07T05:25:30;9.73;;;3.90;;
12896;SDS011;6516;35.028;32.372;2023-08-07T05:27:58;11.15;;;4.22;;
12896;SDS011;6516;35.028;32.372;2023-08-07T05:30:26;10.70;;;4.10;;
12896;SDS011;6516;35.028;32.372;2023-08-07T05:32:54;14.52;;;4.03;;
12896;SDS011;6516;35.028;32.372;2023-08-07T05:35:22;15.40;;;4.22;;
12896;SDS011;6516;35.028;32.372;2023-08-07T05:37:49;26.48;;;5.03;;
12896;SDS011;6516;35.028;32.372;2023-08-07T05:40:19;8.00;;;3.72;;
12896;SDS011;6516;35.028;32.372;2023-08-07T05:42:47;9.10;;;3.90;;
12896;SDS011;6516;35.028;32.372;2023-08-07T05:45:14;7.35;;;3.60;;
12896;SDS011;6516;35.028;32.372;2023-08-07T05:47:42;9.80;;;3.72;;
12896;SDS011;6516;35.028;32.372;2023-08-07T05:50:10;14.90;;;3.80;;
12896;SDS011;6516;35.028;32.372;2023-08-07T05:52:38;11.25;;;3.80;;
12896;SDS011;6516;35.028;32.372;2023-08-07T05:55:06;9.73;;;3.67;;
12896;SDS011;6516;35.028;32.372;2023-08-07T05:57:36;10.15;;;3.38;;
12896;SDS011;6516;35.028;32.372;2023-08-07T06:00:04;10.32;;;3.90;;
12896;SDS011;6516;35.028;32.372;2023-08-07T06:02:39;9.50;;;3.55;;
12896;SDS011;6516;35.028;32.372;2023-08-07T06:05:07;10.23;;;3.72;;
12896;SDS011;6516;35.028;32.372;2023-08-07T06:07:37;13.13;;;3.87;;
12896;SDS011;6516;35.028;32.372;2023-08-07T06:10:05;9.30;;;3.55;;
12896;SDS011;6516;35.028;32.372;2023-08-07T06:12:35;10.23;;;3.72;;
12896;SDS011;6516;35.028;32.372;2023-08-07T06:15:03;8.52;;;3.55;;
12896;SDS011;6516;35.028;32.372;2023-08-07T06:17:32;11.00;;;3.60;;
12896;SDS011;6516;35.028;32.372;2023-08-07T06:20:00;10.53;;;3.63;;
12896;SDS011;6516;35.028;32.372;2023-08-07T06:22:30;6.95;;;3.30;;
12896;SDS011;6516;35.028;32.372;2023-08-07T06:24:58;11.07;;;3.70;;
12896;SDS011;6516;35.028;32.372;2023-08-07T06:27:25;9.35;;;3.70;;
12896;SDS011;6516;35.028;32.372;2023-08-07T06:29:55;8.48;;;3.10;;
12896;SDS011;6516;35.028;32.372;2023-08-07T06:32:23;11.10;;;3.33;;
12896;SDS011;6516;35.028;32.372;2023-08-07T06:34:51;8.95;;;3.58;;
12896;SDS011;6516;35.028;32.372;2023-08-07T06:37:19;10.02;;;3.80;;
12896;SDS011;6516;35.028;32.372;2023-08-07T06:39:47;12.07;;;3.90;;
12896;SDS011;6516;35.028;32.372;2023-08-07T06:42:15;10.48;;;3.53;;
12896;SDS011;6516;35.028;32.372;2023-08-07T06:44:43;9.33;;;3.07;;
12896;SDS011;6516;35.028;32.372;2023-08-07T06:47:12;9.07;;;3.38;;
12896;SDS011;6516;35.028;32.372;2023-08-07T06:49:40;9.27;;;3.40;;
12896;SDS011;6516;35.028;32.372;2023-08-07T06:52:07;19.90;;;4.40;;
12896;SDS011;6516;35.028;32.372;2023-08-07T06:54:35;12.70;;;3.88;;
12896;SDS011;6516;35.028;32.372;2023-08-07T06:57:03;32.93;;;4.90;;
12896;SDS011;6516;35.028;32.372;2023-08-07T06:59:32;10.43;;;3.28;;
12896;SDS011;6516;35.028;32.372;2023-08-07T07:01:59;10.32;;;3.67;;
12896;SDS011;6516;35.028;32.372;2023-08-07T07:04:29;30.92;;;5.53;;
12896;SDS011;6516;35.028;32.372;2023-08-07T07:06:57;17.70;;;4.90;;
12896;SDS011;6516;35.028;32.372;2023-08-07T07:09:24;31.03;;;5.40;;
12896;SDS011;6516;35.028;32.372;2023-08-07T07:11:54;76.57;;;9.93;;
12896;SDS011;6516;35.028;32.372;2023-08-07T07:14:22;34.00;;;5.85;;
12896;SDS011;6516;35.028;32.372;2023-08-07T07:16:50;18.90;;;4.05;;
12896;SDS011;6516;35.028;32.372;2023-08-07T07:19:19;13.70;;;4.10;;
12896;SDS011;6516;35.028;32.372;2023-08-07T07:21:48;11.60;;;3.47;;
12896;SDS011;6516;35.028;32.372;2023-08-07T07:24:17;41.28;;;6.38;;
12896;SDS011;6516;35.028;32.372;2023-08-07T07:26:44;10.05;;;3.53;;
12896;SDS011;6516;35.028;32.372;2023-08-07T07:29:12;11.68;;;3.35;;
12896;SDS011;6516;35.028;32.372;2023-08-07T07:31:40;18.27;;;4.45;;
12896;SDS011;6516;35.028;32.372;2023-08-07T07:34:08;10.77;;;3.80;;
12896;SDS011;6516;35.028;32.372;2023-08-07T07:36:35;50.72;;;6.82;;
12896;SDS011;6516;35.028;32.372;2023-08-07T07:39:05;26.60;;;5.35;;
12896;SDS011;6516;35.028;32.372;2023-08-07T07:41:32;18.98;;;3.90;;
12896;SDS011;6516;35.028;32.372;2023-08-07T07:44:00;26.98;;;4.80;;
12896;SDS011;6516;35.028;32.372;2023-08-07T07:46:28;37.27;;;5.07;;
12896;SDS011;6516;35.028;32.372;2023-08-07T07:48:57;16.58;;;3.70;;
12896;SDS011;6516;35.028;32.372;2023-08-07T07:51:24;11.38;;;3.78;;
12896;SDS011;6516;35.028;32.372;2023-08-07T07:53:53;12.38;;;3.55;;
12896;SDS011;6516;35.028;32.372;2023-08-07T07:56:23;12.05;;;3.80;;
12896;SDS011;6516;35.028;32.372;2023-08-07T07:58:51;9.77;;;3.97;;
12896;SDS011;6516;35.028;32.372;2023-08-07T08:01:18;12.95;;;3.53;;
12896;SDS011;6516;35.028;32.372;2023-08-07T08:03:46;10.98;;;3.67;;
12896;SDS011;6516;35.028;32.372;2023-08-07T08:06:14;12.65;;;3.97;;
12896;SDS011;6516;35.028;32.372;2023-08-07T08:08:42;8.15;;;3.28;;
12896;SDS011;6516;35.028;32.372;2023-08-07T08:11:09;10.73;;;3.30;;
12896;SDS011;6516;35.028;32.372;2023-08-07T08:13:39;10.90;;;3.80;;
12896;SDS011;6516;35.028;32.372;2023-08-07T08:16:07;12.55;;;3.83;;
12896;SDS011;6516;35.028;32.372;2023-08-07T08:18:34;13.57;;;3.40;;
12896;SDS011;6516;35.028;32.372;2023-08-07T08:21:02;14.88;;;3.83;;
12896;SDS011;6516;35.028;32.372;2023-08-07T08:23:31;9.37;;;3.20;;
12896;SDS011;6516;35.028;32.372;2023-08-07T08:25:59;17.73;;;3.75;;
12896;SDS011;6516;35.028;32.372;2023-08-07T08:28:27;13.63;;;3.95;;
12896;SDS011;6516;35.028;32.372;2023-08-07T08:30:57;22.63;;;4.07;;
12896;SDS011;6516;35.028;32.372;2023-08-07T08:33:25;10.43;;;3.30;;
12896;SDS011;6516;35.028;32.372;2023-08-07T08:35:52;8.33;;;3.20;;
12896;SDS011;6516;35.028;32.372;2023-08-07T08:38:20;9.90;;;3.20;;
12896;SDS011;6516;35.028;32.372;2023-08-07T08:40:49;12.27;;;3.60;;
12896;SDS011;6516;35.028;32.372;2023-08-07T08:43:19;14.60;;;3.58;;
12896;SDS011;6516;35.028;32.372;2023-08-07T08:45:47;15.02;;;3.53;;
12896;SDS011;6516;35.028;32.372;2023-08-07T08:48:19;12.20;;;3.70;;
12896;SDS011;6516;35.028;32.372;2023-08-07T08:50:49;13.90;;;3.83;;
12896;SDS011;6516;35.028;32.372;2023-08-07T08:53:17;14.63;;;3.88;;
12896;SDS011;6516;35.028;32.372;2023-08-07T08:55:47;19.25;;;3.90;;
12896;SDS011;6516;35.028;32.372;2023-08-07T08:58:15;17.50;;;3.85;;
12896;SDS011;6516;35.028;32.372;2023-08-07T09:00:44;12.03;;;3.30;;
12896;SDS011;6516;35.028;32.372;2023-08-07T09:03:12;14.10;;;3.63;;
12896;SDS011;6516;35.028;32.372;2023-08-07T09:05:42;15.80;;;3.63;;
12896;SDS011;6516;35.028;32.372;2023-08-07T09:08:10;9.77;;;3.60;;
12896;SDS011;6516;35.028;32.372;2023-08-07T09:10:38;13.07;;;3.50;;
12896;SDS011;6516;35.028;32.372;2023-08-07T09:13:08;13.50;;;3.60;;
12896;SDS011;6516;35.028;32.372;2023-08-07T09:15:41;13.32;;;3.50;;
12896;SDS011;6516;35.028;32.372;2023-08-07T09:18:15;12.70;;;3.72;;
12896;SDS011;6516;35.028;32.372;2023-08-07T09:20:45;10.60;;;2.90;;
12896;SDS011;6516;35.028;32.372;2023-08-07T09:23:14;10.38;;;3.45;;
12896;SDS011;6516;35.028;32.372;2023-08-07T09:25:43;14.10;;;3.77;;
12896;SDS011;6516;35.028;32.372;2023-08-07T09:28:11;13.35;;;3.20;;
12896;SDS011;6516;35.028;32.372;2023-08-07T09:30:39;9.38;;;3.67;;
12896;SDS011;6516;35.028;32.372;2023-08-07T09:33:09;11.55;;;3.30;;
12896;SDS011;6516;35.028;32.372;2023-08-07T09:35:37;8.70;;;3.20;;
12896;SDS011;6516;35.028;32.372;2023-08-07T09:38:08;13.57;;;3.30;;
12896;SDS011;6516;35.028;32.372;2023-08-07T09:40:35;9.93;;;3.10;;
12896;SDS011;6516;35.028;32.372;2023-08-07T09:43:03;8.35;;;3.10;;
12896;SDS011;6516;35.028;32.372;2023-08-07T09:45:32;12.15;;;2.85;;
12896;SDS011;6516;35.028;32.372;2023-08-07T09:48:02;10.82;;;3.25;;
12896;SDS011;6516;35.028;32.372;2023-08-07T09:50:32;9.13;;;3.00;;
12896;SDS011;6516;35.028;32.372;2023-08-07T09:53:00;8.20;;;2.88;;
12896;SDS011;6516;35.028;32.372;2023-08-07T09:55:29;9.38;;;3.45;;
12896;SDS011;6516;35.028;32.372;2023-08-07T09:57:57;11.98;;;3.00;;
12896;SDS011;6516;35.028;32.372;2023-08-07T10:00:28;8.75;;;3.33;;
12896;SDS011;6516;35.028;32.372;2023-08-07T10:03:01;9.93;;;3.40;;
12896;SDS011;6516;35.028;32.372;2023-08-07T10:05:30;30.88;;;4.05;;
12896;SDS011;6516;35.028;32.372;2023-08-07T10:07:58;11.02;;;3.20;;
12896;SDS011;6516;35.028;32.372;2023-08-07T10:10:26;12.23;;;3.22;;
12896;SDS011;6516;35.028;32.372;2023-08-07T10:12:56;19.15;;;3.28;;
12896;SDS011;6516;35.028;32.372;2023-08-07T10:15:27;7.53;;;2.90;;
12896;SDS011;6516;35.028;32.372;2023-08-07T10:17:56;10.77;;;3.13;;
12896;SDS011;6516;35.028;32.372;2023-08-07T10:20:24;9.93;;;3.33;;
12896;SDS011;6516;35.028;32.372;2023-08-07T10:22:55;10.13;;;3.10;;
12896;SDS011;6516;35.028;32.372;2023-08-07T10:25:35;12.55;;;3.20;;
12896;SDS011;6516;35.028;32.372;2023-08-07T10:28:04;14.27;;;2.93;;
12896;SDS011;6516;35.028;32.372;2023-08-07T10:30:37;17.42;;;3.17;;
12896;SDS011;6516;35.028;32.372;2023-08-07T10:33:08;8.65;;;2.92;;
12896;SDS011;6516;35.028;32.372;2023-08-07T10:35:37;8.60;;;2.60;;
12896;SDS011;6516;35.028;32.372;2023-08-07T10:38:13;10.80;;;3.00;;
12896;SDS011;6516;35.028;32.372;2023-08-07T10:41:01;8.43;;;2.73;;
12896;SDS011;6516;35.028;32.372;2023-08-07T10:43:36;11.95;;;3.20;;
12896;SDS011;6516;35.028;32.372;2023-08-07T10:46:05;10.15;;;2.83;;
12896;SDS011;6516;35.028;32.372;2023-08-07T10:48:40;9.63;;;2.80;;
12896;SDS011;6516;35.028;32.372;2023-08-07T10:51:11;11.10;;;2.85;;
12896;SDS011;6516;35.028;32.372;2023-08-07T10:53:41;9.10;;;2.83;;
12896;SDS011;6516;35.028;32.372;2023-08-07T10:56:15;10.73;;;2.63;;
12896;SDS011;6516;35.028;32.372;2023-08-07T10:58:49;10.95;;;2.80;;
12896;SDS011;6516;35.028;32.372;2023-08-07T11:01:19;12.68;;;2.92;;
12896;SDS011;6516;35.028;32.372;2023-08-07T11:03:49;7.18;;;2.60;;
12896;SDS011;6516;35.028;32.372;2023-08-07T11:06:21;6.00;;;2.30;;
12896;SDS011;6516;35.028;32.372;2023-08-07T11:08:52;13.10;;;2.75;;
12896;SDS011;6516;35.028;32.372;2023-08-07T11:11:22;7.70;;;2.60;;
12896;SDS011;6516;35.028;32.372;2023-08-07T11:13:50;7.60;;;2.53;;
12896;SDS011;6516;35.028;32.372;2023-08-07T11:16:18;9.23;;;2.50;;
12896;SDS011;6516;35.028;32.372;2023-08-07T11:18:47;11.57;;;2.87;;
12896;SDS011;6516;35.028;32.372;2023-08-07T11:21:16;8.82;;;2.33;;
12896;SDS011;6516;35.028;32.372;2023-08-07T11:23:43;10.30;;;2.47;;
12896;SDS011;6516;35.028;32.372;2023-08-07T11:26:11;10.43;;;2.78;;
12896;SDS011;6516;35.028;32.372;2023-08-07T11:28:41;12.07;;;2.65;;
12896;SDS011;6516;35.028;32.372;2023-08-07T11:31:08;10.93;;;2.87;;
12896;SDS011;6516;35.028;32.372;2023-08-07T11:33:36;9.73;;;2.60;;
12896;SDS011;6516;35.028;32.372;2023-08-07T11:36:09;12.02;;;3.10;;
12896;SDS011;6516;35.028;32.372;2023-08-07T11:38:38;9.23;;;2.40;;
12896;SDS011;6516;35.028;32.372;2023-08-07T11:41:09;12.07;;;3.00;;
12896;SDS011;6516;35.028;32.372;2023-08-07T11:43:38;8.03;;;2.73;;
12896;SDS011;6516;35.028;32.372;2023-08-07T11:46:11;9.68;;;2.70;;
12896;SDS011;6516;35.028;32.372;2023-08-07T11:48:42;10.50;;;3.10;;
12896;SDS011;6516;35.028;32.372;2023-08-07T11:51:11;12.13;;;2.72;;
12896;SDS011;6516;35.028;32.372;2023-08-07T11:53:39;10.25;;;2.38;;
12896;SDS011;6516;35.028;32.372;2023-08-07T11:56:09;13.93;;;2.60;;
12896;SDS011;6516;35.028;32.372;2023-08-07T11:58:41;11.57;;;2.80;;
12896;SDS011;6516;35.028;32.372;2023-08-07T12:01:12;26.05;;;3.40;;
12896;SDS011;6516;35.028;32.372;2023-08-07T12:03:50;10.02;;;2.65;;
12896;SDS011;6516;35.028;32.372;2023-08-07T12:06:20;11.73;;;2.60;;
12896;SDS011;6516;35.028;32.372;2023-08-07T12:08:49;11.33;;;2.77;;
12896;SDS011;6516;35.028;32.372;2023-08-07T12:11:20;6.88;;;2.22;;
12896;SDS011;6516;35.028;32.372;2023-08-07T12:13:49;13.07;;;2.85;;
12896;SDS011;6516;35.028;32.372;2023-08-07T12:16:18;11.52;;;2.72;;
12896;SDS011;6516;35.028;32.372;2023-08-07T12:18:46;11.20;;;2.50;;
12896;SDS011;6516;35.028;32.372;2023-08-07T12:21:16;8.70;;;2.30;;
12896;SDS011;6516;35.028;32.372;2023-08-07T12:23:48;16.45;;;3.05;;
12896;SDS011;6516;35.028;32.372;2023-08-07T12:26:16;11.30;;;2.70;;
12896;SDS011;6516;35.028;32.372;2023-08-07T12:28:44;10.35;;;2.58;;
12896;SDS011;6516;35.028;32.372;2023-08-07T12:31:13;10.25;;;2.95;;
12896;SDS011;6516;35.028;32.372;2023-08-07T12:33:42;10.40;;;2.80;;
12896;SDS011;6516;35.028;32.372;2023-08-07T12:36:10;11.10;;;2.60;;
12896;SDS011;6516;35.028;32.372;2023-08-07T12:38:40;9.00;;;2.60;;
12896;SDS011;6516;35.028;32.372;2023-08-07T12:41:07;14.57;;;2.75;;
12896;SDS011;6516;35.028;32.372;2023-08-07T12:43:38;11.40;;;2.70;;
12896;SDS011;6516;35.028;32.372;2023-08-07T12:46:06;12.10;;;2.27;;
12896;SDS011;6516;35.028;32.372;2023-08-07T12:48:35;9.93;;;2.60;;
12896;SDS011;6516;35.028;32.372;2023-08-07T12:51:04;10.27;;;2.67;;
12896;SDS011;6516;35.028;32.372;2023-08-07T12:53:32;13.27;;;2.88;;
12896;SDS011;6516;35.028;32.372;2023-08-07T12:55:59;9.43;;;2.53;;
12896;SDS011;6516;35.028;32.372;2023-08-07T12:58:28;14.63;;;2.97;;
12896;SDS011;6516;35.028;32.372;2023-08-07T13:00:57;11.10;;;2.90;;
12896;SDS011;6516;35.028;32.372;2023-08-07T13:03:25;12.20;;;2.95;;
12896;SDS011;6516;35.028;32.372;2023-08-07T13:05:55;9.38;;;2.70;;
12896;SDS011;6516;35.028;32.372;2023-08-07T13:08:22;9.73;;;2.80;;
12896;SDS011;6516;35.028;32.372;2023-08-07T13:10:50;10.87;;;2.60;;
12896;SDS011;6516;35.028;32.372;2023-08-07T13:13:19;12.48;;;2.88;;
12896;SDS011;6516;35.028;32.372;2023-08-07T13:15:47;8.48;;;2.60;;
12896;SDS011;6516;35.028;32.372;2023-08-07T13:18:14;10.88;;;2.47;;
12896;SDS011;6516;35.028;32.372;2023-08-07T13:20:42;11.20;;;2.67;;
12896;SDS011;6516;35.028;32.372;2023-08-07T13:23:13;11.70;;;2.40;;
12896;SDS011;6516;35.028;32.372;2023-08-07T13:25:41;9.45;;;2.72;;
12896;SDS011;6516;35.028;32.372;2023-08-07T13:28:09;12.57;;;2.90;;
12896;SDS011;6516;35.028;32.372;2023-08-07T13:30:37;13.00;;;3.20;;
12896;SDS011;6516;35.028;32.372;2023-08-07T13:33:05;11.55;;;2.65;;
12896;SDS011;6516;35.028;32.372;2023-08-07T13:35:34;10.77;;;2.53;;
12896;SDS011;6516;35.028;32.372;2023-08-07T13:38:03;10.07;;;2.72;;
12896;SDS011;6516;35.028;32.372;2023-08-07T13:40:34;10.60;;;2.85;;
12896;SDS011;6516;35.028;32.372;2023-08-07T13:43:02;9.88;;;2.65;;
12896;SDS011;6516;35.028;32.372;2023-08-07T13:45:34;9.23;;;2.45;;
12896;SDS011;6516;35.028;32.372;2023-08-07T13:48:02;10.67;;;2.70;;
12896;SDS011;6516;35.028;32.372;2023-08-07T13:50:31;13.13;;;2.88;;
12896;SDS011;6516;35.028;32.372;2023-08-07T13:52:59;11.93;;;2.83;;
12896;SDS011;6516;35.028;32.372;2023-08-07T13:55:27;9.23;;;2.75;;
12896;SDS011;6516;35.028;32.372;2023-08-07T13:57:56;10.10;;;2.60;;
12896;SDS011;6516;35.028;32.372;2023-08-07T14:00:24;8.33;;;2.63;;
12896;SDS011;6516;35.028;32.372;2023-08-07T14:02:51;10.30;;;2.67;;
12896;SDS011;6516;35.028;32.372;2023-08-07T14:05:19;13.57;;;2.95;;
12896;SDS011;6516;35.028;32.372;2023-08-07T14:07:47;10.23;;;2.72;;
12896;SDS011;6516;35.028;32.372;2023-08-07T14:10:15;13.15;;;2.90;;
12896;SDS011;6516;35.028;32.372;2023-08-07T14:12:43;11.50;;;2.83;;
12896;SDS011;6516;35.028;32.372;2023-08-07T14:15:13;10.25;;;2.88;;
12896;SDS011;6516;35.028;32.372;2023-08-07T14:17:41;8.30;;;2.85;;
12896;SDS011;6516;35.028;32.372;2023-08-07T14:20:09;10.15;;;2.85;;
12896;SDS011;6516;35.028;32.372;2023-08-07T14:22:37;12.63;;;3.10;;
12896;SDS011;6516;35.028;32.372;2023-08-07T14:25:06;10.53;;;2.90;;
12896;SDS011;6516;35.028;32.372;2023-08-07T14:27:35;9.27;;;2.72;;
12896;SDS011;6516;35.028;32.372;2023-08-07T14:30:03;12.43;;;3.22;;
12896;SDS011;6516;35.028;32.372;2023-08-07T14:32:33;8.43;;;2.80;;
12896;SDS011;6516;35.028;32.372;2023-08-07T14:35:01;10.30;;;3.20;;
12896;SDS011;6516;35.028;32.372;2023-08-07T14:37:29;8.67;;;3.07;;
12896;SDS011;6516;35.028;32.372;2023-08-07T14:39:57;8.57;;;2.70;;
12896;SDS011;6516;35.028;32.372;2023-08-07T14:42:25;10.07;;;2.60;;
12896;SDS011;6516;35.028;32.372;2023-08-07T14:44:52;9.32;;;2.80;;
12896;SDS011;6516;35.028;32.372;2023-08-07T14:47:20;10.05;;;2.70;;